Terminal Aerodrome Forecast
Issued by NWS

Home | Current Version | Previous Version | Text Only | Print | Product List | Glossary On
Versions: 1 2 3 4 5 6 7 8 9 10 11 12 13 14 15 16 17 18 19 20 21 22 23
000
FTUS43 KAPX 230532
TAFTVC
TAF
KTVC 230532Z 2306/2406 VRB03KT P6SM BKN040
     FM230900 VRB03KT 3SM BR BKN200
     FM231400 00000KT P6SM OVC015
     FM231600 VRB03KT P6SM OVC130
     FM232000 01008KT P6SM OVC060
     FM240300 04005KT P6SM OVC025=

USA.gov is the U.S. government's official web portal to all federal, state and local government web resources and services.